createdAt,value
2023-08-06T00:01:36.521Z,19.83
2023-08-06T00:04:03.477Z,19.84
2023-08-06T00:06:30.413Z,19.91
2023-08-06T00:08:57.160Z,19.95
2023-08-06T00:11:24.118Z,19.97
2023-08-06T00:13:50.841Z,20.05
2023-08-06T00:16:17.819Z,20.12
2023-08-06T00:18:44.536Z,20.15
2023-08-06T00:21:13.537Z,20.15
2023-08-06T00:23:41.384Z,20.18
2023-08-06T00:26:08.166Z,20.16
2023-08-06T00:28:34.841Z,20.11
2023-08-06T00:31:01.651Z,19.99
2023-08-06T00:33:28.928Z,19.80
2023-08-06T00:35:55.736Z,19.67
2023-08-06T00:38:22.381Z,19.56
2023-08-06T00:40:49.098Z,19.46
2023-08-06T00:43:15.704Z,19.42
2023-08-06T00:45:43.366Z,19.39
2023-08-06T00:48:10.291Z,19.36
2023-08-06T00:50:37.026Z,19.29
2023-08-06T00:53:03.978Z,19.22
2023-08-06T00:55:31.378Z,19.19
2023-08-06T00:57:58.642Z,19.29
2023-08-06T01:00:26.254Z,19.27
2023-08-06T01:02:54.661Z,19.12
2023-08-06T01:05:22.747Z,18.99
2023-08-06T01:07:55.307Z,18.91
2023-08-06T01:10:34.053Z,18.80
2023-08-06T01:13:38.397Z,18.80
2023-08-06T01:16:07.056Z,18.82
2023-08-06T01:18:34.875Z,18.81
2023-08-06T01:21:02.101Z,18.82
2023-08-06T01:23:29.179Z,18.80
2023-08-06T01:26:04.022Z,18.79
2023-08-06T01:29:07.785Z,18.73
2023-08-06T01:31:43.025Z,18.64
2023-08-06T01:34:17.166Z,18.59
2023-08-06T01:36:44.184Z,18.53
2023-08-06T01:39:11.357Z,18.48
2023-08-06T01:41:38.296Z,18.46
2023-08-06T01:44:05.327Z,18.46
2023-08-06T01:46:32.063Z,18.46
2023-08-06T01:48:58.959Z,18.42
2023-08-06T01:51:25.731Z,18.39
2023-08-06T01:53:52.428Z,18.40
2023-08-06T01:56:20.066Z,18.40
2023-08-06T01:58:46.844Z,18.37
2023-08-06T02:01:13.550Z,18.31
2023-08-06T02:03:40.230Z,18.24
2023-08-06T02:06:07.148Z,18.22
2023-08-06T02:08:33.912Z,18.19
2023-08-06T02:11:00.916Z,18.21
2023-08-06T02:13:27.678Z,18.22
2023-08-06T02:15:54.783Z,18.26
2023-08-06T02:18:21.452Z,18.30
2023-08-06T02:20:58.728Z,18.28
2023-08-06T02:23:26.370Z,18.24
2023-08-06T02:26:01.228Z,18.20
2023-08-06T02:28:28.061Z,18.19
2023-08-06T02:30:54.742Z,18.17
2023-08-06T02:33:21.485Z,18.13
2023-08-06T02:35:48.374Z,18.11
2023-08-06T02:38:15.050Z,18.08
2023-08-06T02:40:48.089Z,18.05
2023-08-06T02:43:16.051Z,18.04
2023-08-06T02:45:42.914Z,18.05
2023-08-06T02:48:09.760Z,18.03
2023-08-06T02:50:40.844Z,18.02
2023-08-06T02:53:08.253Z,18.03
2023-08-06T02:55:36.410Z,18.01
2023-08-06T02:58:03.450Z,18.01
2023-08-06T03:00:30.619Z,17.99
2023-08-06T03:02:57.398Z,17.99
2023-08-06T03:05:24.200Z,17.97
2023-08-06T03:07:51.236Z,17.93
2023-08-06T03:10:17.940Z,17.90
2023-08-06T03:12:44.701Z,17.87
2023-08-06T03:15:11.483Z,17.87
2023-08-06T03:17:38.337Z,17.87
2023-08-06T03:20:05.662Z,17.83
2023-08-06T03:22:32.292Z,17.81
2023-08-06T03:24:58.961Z,17.76
2023-08-06T03:27:25.607Z,17.75
2023-08-06T03:29:52.793Z,17.72
2023-08-06T03:32:19.485Z,17.72
2023-08-06T03:34:46.190Z,17.66
2023-08-06T03:37:13.013Z,17.66
2023-08-06T03:39:39.958Z,17.68
2023-08-06T03:42:06.834Z,17.75
2023-08-06T03:44:33.582Z,17.72
2023-08-06T03:47:00.369Z,17.67
2023-08-06T03:49:27.110Z,17.58
2023-08-06T03:51:53.993Z,17.46
2023-08-06T03:54:20.884Z,17.33
2023-08-06T03:56:47.560Z,17.29
2023-08-06T03:59:14.399Z,17.17
2023-08-06T04:01:41.340Z,17.03
2023-08-06T04:04:08.033Z,17.00
2023-08-06T04:06:34.651Z,16.92
2023-08-06T04:09:01.561Z,16.79
2023-08-06T04:11:28.368Z,16.60
2023-08-06T04:13:56.400Z,16.48
2023-08-06T04:16:23.079Z,16.29
2023-08-06T04:18:50.206Z,16.21
2023-08-06T04:21:16.906Z,16.20
2023-08-06T04:23:43.523Z,16.18
2023-08-06T04:26:10.219Z,16.13
2023-08-06T04:28:36.910Z,16.09
2023-08-06T04:31:03.693Z,16.15
2023-08-06T04:33:30.483Z,16.21
2023-08-06T04:35:57.744Z,16.16
2023-08-06T04:38:26.520Z,16.20
2023-08-06T04:40:53.961Z,16.19
2023-08-06T04:43:20.859Z,16.17
2023-08-06T04:45:51.782Z,16.08
2023-08-06T04:48:18.892Z,15.97
2023-08-06T04:50:46.639Z,15.93
2023-08-06T04:53:13.423Z,15.91
2023-08-06T04:55:40.482Z,15.90
2023-08-06T04:58:07.282Z,15.87
2023-08-06T05:00:34.811Z,15.88
2023-08-06T05:03:02.571Z,15.91
2023-08-06T05:05:29.884Z,15.98
2023-08-06T05:07:58.312Z,16.02
2023-08-06T05:10:28.758Z,16.10
2023-08-06T05:12:55.547Z,16.13
2023-08-06T05:15:22.608Z,16.10
2023-08-06T05:17:49.546Z,16.09
2023-08-06T05:20:17.022Z,16.07
2023-08-06T05:22:44.653Z,16.09
2023-08-06T05:25:15.718Z,16.10
2023-08-06T05:27:42.727Z,16.12
2023-08-06T05:30:10.698Z,16.10
2023-08-06T05:32:37.609Z,16.03
2023-08-06T05:35:04.729Z,16.00
2023-08-06T05:37:37.338Z,16.01
2023-08-06T05:40:05.291Z,16.05
2023-08-06T05:42:32.312Z,16.07
2023-08-06T05:44:58.975Z,16.15
2023-08-06T05:47:25.722Z,16.20
2023-08-06T05:49:52.809Z,16.27
2023-08-06T05:52:19.517Z,16.25
2023-08-06T05:54:46.268Z,16.25
2023-08-06T05:57:12.941Z,16.29
2023-08-06T05:59:41.294Z,16.32
2023-08-06T06:02:08.015Z,16.31
2023-08-06T06:04:35.049Z,16.32
2023-08-06T06:07:01.811Z,16.35
2023-08-06T06:09:28.550Z,16.35
2023-08-06T06:11:55.481Z,16.37
2023-08-06T06:14:22.609Z,16.37
2023-08-06T06:16:49.305Z,16.31
2023-08-06T06:19:15.971Z,16.28
2023-08-06T06:21:42.918Z,16.27
2023-08-06T06:24:09.582Z,16.30
2023-08-06T06:26:36.386Z,16.33
2023-08-06T06:29:03.578Z,16.35
2023-08-06T06:31:30.888Z,16.39
2023-08-06T06:33:57.769Z,16.43
2023-08-06T06:36:25.054Z,16.43
2023-08-06T06:38:51.899Z,16.43
2023-08-06T06:41:18.557Z,16.40
2023-08-06T06:43:45.979Z,16.38
2023-08-06T06:46:12.718Z,16.35
2023-08-06T06:48:40.134Z,16.31
2023-08-06T06:51:07.095Z,16.25
2023-08-06T06:53:33.739Z,16.20
2023-08-06T06:56:04.497Z,16.15
2023-08-06T06:58:31.715Z,16.10
2023-08-06T07:00:58.702Z,16.06
2023-08-06T07:03:25.742Z,16.08
2023-08-06T07:05:52.991Z,16.05
2023-08-06T07:08:19.865Z,16.02
2023-08-06T07:10:46.499Z,15.99
2023-08-06T07:13:13.144Z,15.98
2023-08-06T07:15:39.959Z,16.02
2023-08-06T07:18:06.679Z,16.05
2023-08-06T07:20:35.198Z,16.07
2023-08-06T07:23:01.881Z,16.12
2023-08-06T07:25:28.740Z,16.14
2023-08-06T07:27:55.474Z,16.15
2023-08-06T07:30:22.183Z,16.14
2023-08-06T07:32:48.993Z,16.15
2023-08-06T07:35:15.932Z,16.14
2023-08-06T07:37:43.194Z,16.11
2023-08-06T07:40:10.318Z,16.09
2023-08-06T07:42:37.088Z,16.10
2023-08-06T07:45:04.055Z,16.13
2023-08-06T07:47:30.870Z,16.10
2023-08-06T07:49:57.574Z,16.06
2023-08-06T07:52:24.241Z,16.00
2023-08-06T07:54:51.692Z,15.93
2023-08-06T07:57:18.604Z,15.82
2023-08-06T07:59:45.319Z,15.73
2023-08-06T08:02:12.013Z,15.71
2023-08-06T08:04:38.758Z,15.64
2023-08-06T08:07:05.865Z,15.57
2023-08-06T08:09:32.818Z,15.50
2023-08-06T08:12:02.292Z,15.42
2023-08-06T08:14:30.073Z,15.36
2023-08-06T08:16:57.079Z,15.31
2023-08-06T08:19:23.992Z,15.25
2023-08-06T08:21:51.010Z,15.22
2023-08-06T08:24:20.945Z,15.20
2023-08-06T08:26:48.132Z,15.18
2023-08-06T08:29:15.019Z,15.21
2023-08-06T08:31:41.745Z,15.23
2023-08-06T08:34:08.511Z,15.24
2023-08-06T08:36:35.279Z,15.26
2023-08-06T08:39:02.020Z,15.30
2023-08-06T08:41:32.918Z,15.35
2023-08-06T08:44:01.728Z,15.37
2023-08-06T08:46:34.977Z,15.39
2023-08-06T08:49:03.640Z,15.45
2023-08-06T08:51:31.603Z,15.55
2023-08-06T08:53:58.722Z,15.60
2023-08-06T08:56:26.100Z,15.61
2023-08-06T08:58:54.433Z,15.61
2023-08-06T09:01:23.501Z,15.63
2023-08-06T09:03:53.101Z,15.62
2023-08-06T09:06:22.135Z,15.63
2023-08-06T09:09:05.498Z,15.63
2023-08-06T09:11:40.914Z,15.68
2023-08-06T09:14:09.641Z,15.71
2023-08-06T09:16:37.387Z,15.73
2023-08-06T09:19:11.607Z,15.73
2023-08-06T09:21:42.327Z,15.76
2023-08-06T09:24:13.859Z,15.78
2023-08-06T09:26:42.610Z,15.80
2023-08-06T09:29:12.644Z,15.82
2023-08-06T09:31:47.828Z,15.88
2023-08-06T09:34:19.764Z,15.92
2023-08-06T09:36:48.860Z,15.94
2023-08-06T09:39:18.472Z,15.92
2023-08-06T09:41:45.873Z,15.90
2023-08-06T09:44:24.884Z,15.88
2023-08-06T09:46:53.878Z,15.84
2023-08-06T09:49:24.126Z,15.81
2023-08-06T09:51:53.543Z,15.78
2023-08-06T09:54:26.986Z,15.73
2023-08-06T09:56:56.560Z,15.68
2023-08-06T09:59:27.721Z,15.63
2023-08-06T10:01:57.387Z,15.61
2023-08-06T10:04:25.887Z,15.61
2023-08-06T10:06:55.879Z,15.56
2023-08-06T10:09:23.252Z,15.52
2023-08-06T10:11:54.251Z,15.50
2023-08-06T10:14:32.624Z,15.49
2023-08-06T10:17:00.832Z,15.49
2023-08-06T10:19:28.668Z,15.48
2023-08-06T10:22:15.624Z,15.46
2023-08-06T10:24:55.956Z,15.45
2023-08-06T10:27:34.402Z,15.43
2023-08-06T10:30:23.958Z,15.43
2023-08-06T10:32:52.932Z,15.43
2023-08-06T10:35:44.660Z,15.44
2023-08-06T10:38:16.652Z,15.41
2023-08-06T10:41:04.565Z,15.40
2023-08-06T10:43:34.141Z,15.39
2023-08-06T10:46:03.370Z,15.39
2023-08-06T10:48:40.992Z,15.40
2023-08-06T10:51:18.588Z,15.43
2023-08-06T10:53:51.060Z,15.46
2023-08-06T10:56:27.213Z,15.46
2023-08-06T10:58:58.246Z,15.47
2023-08-06T11:01:25.642Z,15.48
2023-08-06T11:03:54.579Z,15.49
2023-08-06T11:06:22.844Z,15.49
2023-08-06T11:08:51.627Z,15.47
2023-08-06T11:11:19.240Z,15.47
2023-08-06T11:13:50.296Z,15.43
2023-08-06T11:16:19.698Z,15.41
2023-08-06T11:18:47.266Z,15.39
2023-08-06T11:21:14.405Z,15.39
2023-08-06T11:23:41.723Z,15.39
2023-08-06T11:26:09.272Z,15.40
2023-08-06T11:28:36.143Z,15.40
2023-08-06T11:31:05.001Z,15.37
2023-08-06T11:33:32.611Z,15.36
2023-08-06T11:36:01.052Z,15.35
2023-08-06T11:38:31.375Z,15.35
2023-08-06T11:40:58.447Z,15.34
2023-08-06T11:43:25.239Z,15.31
2023-08-06T11:45:54.526Z,15.31
2023-08-06T11:48:21.221Z,15.33
2023-08-06T11:50:47.953Z,15.40
2023-08-06T11:53:16.438Z,15.43
2023-08-06T11:55:43.888Z,15.48
2023-08-06T11:58:15.914Z,15.53
2023-08-06T12:00:43.840Z,15.57
2023-08-06T12:03:11.289Z,15.60
2023-08-06T12:05:39.984Z,15.65
2023-08-06T12:08:06.836Z,15.69
2023-08-06T12:10:34.461Z,15.72
2023-08-06T12:13:02.109Z,15.73
2023-08-06T12:15:30.570Z,15.71
2023-08-06T12:17:58.665Z,15.72
2023-08-06T12:20:25.474Z,15.75
2023-08-06T12:22:53.674Z,15.78
2023-08-06T12:25:20.593Z,15.80
2023-08-06T12:27:47.861Z,15.85
2023-08-06T12:30:15.217Z,15.91
2023-08-06T12:32:42.570Z,15.95
2023-08-06T12:35:09.887Z,16.03
2023-08-06T12:37:37.162Z,16.06
2023-08-06T12:40:23.554Z,16.07
2023-08-06T12:42:54.540Z,16.11
2023-08-06T12:45:24.108Z,16.14
2023-08-06T12:47:51.203Z,16.15
2023-08-06T12:50:18.686Z,16.16
2023-08-06T12:52:46.015Z,16.15
2023-08-06T12:55:12.729Z,16.08
2023-08-06T12:57:51.898Z,15.97
2023-08-06T13:00:24.242Z,15.87
2023-08-06T13:02:51.185Z,15.79
2023-08-06T13:05:17.930Z,15.70
2023-08-06T13:07:45.977Z,15.66
2023-08-06T13:10:12.773Z,15.60
2023-08-06T13:12:39.832Z,15.53
2023-08-06T13:15:07.325Z,15.50
2023-08-06T13:17:34.090Z,15.47
2023-08-06T13:20:00.915Z,15.51
2023-08-06T13:22:27.679Z,15.55
2023-08-06T13:24:54.516Z,15.67
2023-08-06T13:27:21.354Z,15.93
2023-08-06T13:29:48.628Z,16.18
2023-08-06T13:32:15.360Z,16.28
2023-08-06T13:34:42.395Z,16.25
2023-08-06T13:37:09.108Z,16.19
2023-08-06T13:39:35.900Z,16.15
2023-08-06T13:42:03.566Z,16.04
2023-08-06T13:44:30.621Z,15.97
2023-08-06T13:46:57.757Z,15.94
2023-08-06T13:49:24.720Z,15.93
2023-08-06T13:51:51.539Z,15.90
2023-08-06T13:54:18.418Z,15.88
2023-08-06T13:56:45.121Z,15.86
2023-08-06T13:59:14.757Z,15.82
2023-08-06T14:01:50.386Z,15.79
2023-08-06T14:04:18.458Z,15.82
2023-08-06T14:06:45.660Z,15.87
2023-08-06T14:09:15.207Z,15.96
2023-08-06T14:11:42.192Z,16.16
2023-08-06T14:14:09.060Z,16.36
2023-08-06T14:16:36.356Z,16.61
2023-08-06T14:19:03.655Z,16.80
2023-08-06T14:21:30.990Z,16.95
2023-08-06T14:23:57.741Z,17.07
2023-08-06T14:26:24.600Z,17.13
2023-08-06T14:28:55.533Z,17.25
2023-08-06T14:31:22.724Z,17.34
2023-08-06T14:33:49.534Z,17.43
2023-08-06T14:36:16.332Z,17.38
2023-08-06T14:38:53.802Z,17.34
2023-08-06T14:41:25.759Z,17.16
2023-08-06T14:43:53.065Z,17.07
2023-08-06T14:46:19.907Z,16.99
2023-08-06T14:48:46.724Z,17.00
2023-08-06T14:51:13.789Z,16.99
2023-08-06T14:53:40.712Z,16.99
2023-08-06T14:56:07.521Z,16.94
2023-08-06T14:58:34.370Z,16.95
2023-08-06T15:01:01.164Z,16.95
2023-08-06T15:03:29.544Z,16.94
2023-08-06T15:05:56.279Z,16.89
2023-08-06T15:08:23.209Z,16.84
2023-08-06T15:10:55.915Z,16.72
2023-08-06T15:13:22.521Z,16.70
2023-08-06T15:15:50.722Z,16.79
2023-08-06T15:18:17.630Z,16.91
2023-08-06T15:20:44.377Z,16.97
2023-08-06T15:23:11.029Z,17.05
2023-08-06T15:25:37.693Z,17.13
2023-08-06T15:28:04.595Z,17.19
2023-08-06T15:30:31.408Z,17.21
2023-08-06T15:32:58.382Z,17.20
2023-08-06T15:35:25.345Z,17.21
2023-08-06T15:37:51.975Z,17.22
2023-08-06T15:40:18.577Z,17.21
2023-08-06T15:42:45.875Z,17.19
2023-08-06T15:45:12.577Z,17.19
2023-08-06T15:47:41.729Z,17.16
2023-08-06T15:50:09.924Z,17.14
2023-08-06T15:52:37.140Z,17.14
2023-08-06T15:55:06.428Z,17.15
2023-08-06T15:57:34.335Z,17.14
2023-08-06T16:00:02.303Z,17.17
2023-08-06T16:02:29.468Z,17.16
2023-08-06T16:04:57.559Z,17.14
2023-08-06T16:07:24.803Z,17.16
2023-08-06T16:09:52.338Z,17.20
2023-08-06T16:12:20.539Z,17.29
2023-08-06T16:14:47.929Z,17.37
2023-08-06T16:17:15.208Z,17.41
2023-08-06T16:19:42.018Z,17.44
2023-08-06T16:22:08.927Z,17.46
2023-08-06T16:24:38.680Z,17.43
2023-08-06T16:27:05.990Z,17.33
2023-08-06T16:29:32.930Z,17.29
2023-08-06T16:32:01.292Z,17.24
2023-08-06T16:34:28.407Z,17.26
2023-08-06T16:36:55.784Z,17.27
2023-08-06T16:39:25.230Z,17.26
2023-08-06T16:41:51.946Z,17.32
2023-08-06T16:44:18.772Z,17.39
2023-08-06T16:46:45.655Z,17.39
2023-08-06T16:49:12.299Z,17.39
2023-08-06T16:51:39.124Z,17.40
2023-08-06T16:54:05.892Z,17.38
2023-08-06T16:56:32.744Z,17.37
2023-08-06T16:59:01.712Z,17.38
2023-08-06T17:01:28.995Z,17.43
2023-08-06T17:03:58.790Z,17.43
2023-08-06T17:06:26.071Z,17.45
2023-08-06T17:08:52.866Z,17.46
2023-08-06T17:11:19.586Z,17.47
2023-08-06T17:13:46.316Z,17.46
2023-08-06T17:16:13.762Z,17.43
2023-08-06T17:18:41.786Z,17.42
2023-08-06T17:21:08.677Z,17.46
2023-08-06T17:23:35.412Z,17.43
2023-08-06T17:26:02.140Z,17.41
2023-08-06T17:28:28.995Z,17.43
2023-08-06T17:30:57.528Z,17.39
2023-08-06T17:33:25.209Z,17.39
2023-08-06T17:35:53.340Z,17.36
2023-08-06T17:38:21.420Z,17.31
2023-08-06T17:40:54.607Z,17.23
2023-08-06T17:43:21.357Z,17.17
2023-08-06T17:45:48.152Z,17.07
2023-08-06T17:48:17.142Z,17.05
2023-08-06T17:50:47.278Z,17.00
2023-08-06T17:53:14.704Z,16.91
2023-08-06T17:55:41.744Z,16.88
2023-08-06T17:58:08.715Z,16.83
2023-08-06T18:00:35.984Z,16.84
2023-08-06T18:03:02.990Z,16.83
2023-08-06T18:05:32.245Z,16.80
2023-08-06T18:07:59.354Z,16.80
2023-08-06T18:10:26.733Z,16.78
2023-08-06T18:12:53.483Z,16.76
2023-08-06T18:15:20.550Z,16.69
2023-08-06T18:17:48.193Z,16.64
2023-08-06T18:20:15.490Z,16.61
2023-08-06T18:22:42.252Z,16.58
2023-08-06T18:25:09.554Z,16.55
2023-08-06T18:27:37.413Z,16.53
2023-08-06T18:30:05.048Z,16.51
2023-08-06T18:32:31.934Z,16.50
2023-08-06T18:34:59.371Z,16.46
2023-08-06T18:37:26.389Z,16.43
2023-08-06T18:39:53.146Z,16.40
2023-08-06T18:42:21.201Z,16.39
2023-08-06T18:44:47.929Z,16.39
2023-08-06T18:47:14.641Z,16.38
2023-08-06T18:49:41.588Z,16.38
2023-08-06T18:52:08.545Z,16.35
2023-08-06T18:54:35.261Z,16.33
2023-08-06T18:57:02.179Z,16.32
2023-08-06T18:59:29.250Z,16.30
2023-08-06T19:01:56.137Z,16.30
2023-08-06T19:04:25.266Z,16.26
2023-08-06T19:06:53.224Z,16.23
2023-08-06T19:09:20.911Z,16.20
2023-08-06T19:11:48.725Z,16.21
2023-08-06T19:14:15.653Z,16.18
2023-08-06T19:16:46.843Z,16.19
2023-08-06T19:19:15.041Z,16.19
2023-08-06T19:21:42.807Z,16.15
2023-08-06T19:24:09.612Z,16.16
2023-08-06T19:26:36.518Z,16.14
2023-08-06T19:29:03.490Z,16.12
2023-08-06T19:31:30.460Z,16.12
2023-08-06T19:33:57.461Z,16.09
2023-08-06T19:36:24.200Z,16.08
2023-08-06T19:38:51.225Z,16.05
2023-08-06T19:41:18.060Z,16.01
2023-08-06T19:43:45.423Z,16.00
2023-08-06T19:46:12.398Z,15.99
2023-08-06T19:48:39.452Z,15.96
2023-08-06T19:51:06.267Z,15.96
2023-08-06T19:53:35.300Z,15.96
2023-08-06T19:56:04.320Z,15.96
2023-08-06T19:58:33.724Z,15.94
2023-08-06T20:01:00.746Z,15.89
2023-08-06T20:03:28.127Z,15.87
2023-08-06T20:05:55.911Z,15.83
2023-08-06T20:08:22.703Z,15.82
2023-08-06T20:10:51.353Z,15.79
2023-08-06T20:13:18.214Z,15.79
2023-08-06T20:15:47.436Z,15.78
2023-08-06T20:18:16.158Z,15.77
2023-08-06T20:20:43.269Z,15.75
2023-08-06T20:23:10.194Z,15.75
2023-08-06T20:25:36.959Z,15.73
2023-08-06T20:28:03.881Z,15.72
2023-08-06T20:30:30.779Z,15.69
2023-08-06T20:32:57.724Z,15.67
2023-08-06T20:35:24.535Z,15.62
2023-08-06T20:37:51.413Z,15.58
2023-08-06T20:40:18.701Z,15.57
2023-08-06T20:42:45.733Z,15.56
2023-08-06T20:45:12.378Z,15.57
2023-08-06T20:47:38.985Z,15.55
2023-08-06T20:50:06.516Z,15.56
2023-08-06T20:52:33.260Z,15.58
2023-08-06T20:55:00.108Z,15.62
2023-08-06T20:57:26.767Z,15.65
2023-08-06T20:59:53.346Z,15.66
2023-08-06T21:02:20.450Z,15.64
2023-08-06T21:04:50.099Z,15.64
2023-08-06T21:07:17.148Z,15.62
2023-08-06T21:09:44.410Z,15.64
2023-08-06T21:12:11.244Z,15.64
2023-08-06T21:14:38.165Z,15.65
2023-08-06T21:17:05.493Z,15.64
2023-08-06T21:19:32.834Z,15.67
2023-08-06T21:21:59.554Z,15.71
2023-08-06T21:24:26.445Z,15.71
2023-08-06T21:26:53.250Z,15.72
2023-08-06T21:29:20.017Z,15.75
2023-08-06T21:31:46.699Z,15.75
2023-08-06T21:34:13.578Z,15.73
2023-08-06T21:36:40.968Z,15.74
2023-08-06T21:39:08.282Z,15.75
2023-08-06T21:41:35.125Z,15.75
2023-08-06T21:44:03.091Z,15.77
2023-08-06T21:46:29.982Z,15.76
2023-08-06T21:48:59.964Z,15.76
2023-08-06T21:51:26.748Z,15.75
2023-08-06T21:53:53.505Z,15.74
2023-08-06T21:56:20.536Z,15.73
2023-08-06T21:58:49.744Z,15.72
2023-08-06T22:01:20.922Z,15.69
2023-08-06T22:03:47.917Z,15.68
2023-08-06T22:06:14.885Z,15.68
2023-08-06T22:08:42.722Z,15.67
2023-08-06T22:11:10.386Z,15.68
2023-08-06T22:13:39.333Z,15.64
2023-08-06T22:16:07.306Z,15.66
2023-08-06T22:18:34.326Z,15.69
2023-08-06T22:21:01.114Z,15.67
2023-08-06T22:23:28.003Z,15.70
2023-08-06T22:25:56.682Z,15.73
2023-08-06T22:28:24.552Z,15.75
2023-08-06T22:30:52.052Z,15.76
2023-08-06T22:33:19.781Z,15.77
2023-08-06T22:35:46.952Z,15.75
2023-08-06T22:38:13.908Z,15.75
2023-08-06T22:40:40.645Z,15.75
2023-08-06T22:43:07.309Z,15.74
2023-08-06T22:45:33.941Z,15.75
2023-08-06T22:48:01.027Z,15.75
2023-08-06T22:50:27.893Z,15.74
2023-08-06T22:52:54.665Z,15.74
2023-08-06T22:55:41.231Z,15.74
2023-08-06T22:58:08.900Z,15.74
2023-08-06T23:00:35.849Z,15.73
2023-08-06T23:03:09.834Z,15.71
2023-08-06T23:05:37.525Z,15.73
2023-08-06T23:08:04.419Z,15.76
2023-08-06T23:10:32.697Z,15.76
2023-08-06T23:12:59.558Z,15.73
2023-08-06T23:15:26.261Z,15.72
2023-08-06T23:17:53.338Z,15.72
2023-08-06T23:20:20.466Z,15.71
2023-08-06T23:22:48.204Z,15.72
2023-08-06T23:25:15.374Z,15.73
2023-08-06T23:27:42.522Z,15.76
2023-08-06T23:30:10.898Z,15.77
2023-08-06T23:32:38.797Z,15.79
2023-08-06T23:35:05.839Z,15.77
2023-08-06T23:37:34.362Z,15.74
2023-08-06T23:40:01.404Z,15.73
2023-08-06T23:42:28.274Z,15.71
2023-08-06T23:44:55.091Z,15.68
2023-08-06T23:47:21.908Z,15.67
2023-08-06T23:49:48.802Z,15.66
2023-08-06T23:52:15.461Z,15.66
2023-08-06T23:54:42.257Z,15.66
2023-08-06T23:57:09.063Z,15.65
2023-08-06T23:59:36.042Z,15.65
